createdAt,value
2023-01-03T00:01:12.541Z,4.43
2023-01-03T00:04:17.417Z,7.13
2023-01-03T00:07:34.061Z,5.13
2023-01-03T00:10:37.681Z,4.67
2023-01-03T00:13:39.907Z,4.43
2023-01-03T00:16:42.971Z,4.37
2023-01-03T00:19:47.484Z,4.53
2023-01-03T00:22:50.405Z,3.97
2023-01-03T00:25:53.383Z,4.83
2023-01-03T00:28:56.671Z,4.73
2023-01-03T00:31:59.667Z,4.30
2023-01-03T00:35:05.479Z,4.17
2023-01-03T00:38:08.652Z,4.80
2023-01-03T00:41:13.068Z,4.97
2023-01-03T00:44:16.212Z,4.60
2023-01-03T00:47:19.249Z,4.77
2023-01-03T00:50:23.663Z,4.40
2023-01-03T00:53:27.266Z,4.47
2023-01-03T00:56:34.017Z,4.17
2023-01-03T00:59:36.936Z,4.23
2023-01-03T01:02:40.095Z,4.40
2023-01-03T01:05:44.579Z,4.30
2023-01-03T01:08:48.561Z,4.13
2023-01-03T01:11:52.284Z,4.30
2023-01-03T01:14:55.423Z,3.80
2023-01-03T01:17:59.118Z,3.93
2023-01-03T01:21:05.778Z,4.20
2023-01-03T01:24:12.756Z,3.87
2023-01-03T01:27:18.739Z,3.90
2023-01-03T01:30:21.727Z,3.83
2023-01-03T01:33:24.710Z,3.90
2023-01-03T01:36:30.657Z,4.53
2023-01-03T01:39:33.650Z,3.80
2023-01-03T01:42:53.907Z,3.90
2023-01-03T01:45:57.185Z,4.13
2023-01-03T01:49:03.317Z,4.20
2023-01-03T01:52:08.365Z,3.67
2023-01-03T01:55:15.016Z,3.93
2023-01-03T01:58:18.393Z,3.43
2023-01-03T02:01:23.573Z,4.00
2023-01-03T02:04:31.362Z,4.07
2023-01-03T02:07:38.096Z,3.20
2023-01-03T02:10:58.682Z,3.20
2023-01-03T02:14:14.604Z,3.23
2023-01-03T02:17:32.412Z,4.13
2023-01-03T02:20:55.461Z,3.83
2023-01-03T02:24:49.285Z,4.37
2023-01-03T02:28:19.559Z,3.60
2023-01-03T02:31:29.530Z,3.90
2023-01-03T02:34:40.912Z,3.57
2023-01-03T02:37:53.336Z,3.33
2023-01-03T02:41:05.126Z,3.57
2023-01-03T02:44:15.372Z,3.40
2023-01-03T02:47:22.396Z,4.43
2023-01-03T02:50:27.376Z,3.80
2023-01-03T02:53:34.150Z,5.23
2023-01-03T02:56:41.203Z,3.97
2023-01-03T02:59:47.587Z,3.67
2023-01-03T03:02:56.700Z,4.30
2023-01-03T03:06:08.056Z,4.13
2023-01-03T03:09:11.062Z,4.70
2023-01-03T03:12:31.709Z,3.63
2023-01-03T03:15:39.541Z,3.97
2023-01-03T03:18:52.909Z,3.67
2023-01-03T03:22:13.803Z,6.47
2023-01-03T03:25:22.403Z,3.43
2023-01-03T03:28:37.921Z,3.80
2023-01-03T03:31:44.326Z,4.50
2023-01-03T03:34:50.600Z,4.40
2023-01-03T03:37:57.586Z,4.03
2023-01-03T03:41:26.859Z,4.37
2023-01-03T03:45:01.104Z,3.90
2023-01-03T03:48:09.045Z,3.83
2023-01-03T03:51:18.468Z,5.33
2023-01-03T03:54:24.116Z,4.33
2023-01-03T03:57:31.261Z,4.43
2023-01-03T04:00:39.035Z,4.20
2023-01-03T04:03:44.220Z,4.53
2023-01-03T04:06:51.309Z,4.20
2023-01-03T04:09:54.254Z,4.17
2023-01-03T04:12:57.317Z,4.03
2023-01-03T04:16:00.269Z,4.23
2023-01-03T04:19:03.719Z,4.37
2023-01-03T04:22:08.026Z,4.70
2023-01-03T04:25:11.004Z,4.10
2023-01-03T04:28:13.946Z,4.40
2023-01-03T04:31:17.092Z,3.87
2023-01-03T04:34:20.077Z,4.50
2023-01-03T04:37:24.389Z,4.30
2023-01-03T04:40:27.473Z,4.93
2023-01-03T04:43:47.906Z,4.07
2023-01-03T04:46:53.085Z,3.87
2023-01-03T04:49:56.304Z,4.43
2023-01-03T04:53:00.657Z,4.53
2023-01-03T04:56:03.815Z,4.23
2023-01-03T04:59:06.936Z,4.13
2023-01-03T05:02:10.094Z,4.50
2023-01-03T05:05:13.236Z,4.93
2023-01-03T05:08:17.570Z,4.63
2023-01-03T05:11:20.797Z,4.70
2023-01-03T05:14:23.797Z,5.13
2023-01-03T05:17:26.763Z,4.40
2023-01-03T05:20:47.582Z,5.27
2023-01-03T05:24:09.304Z,5.17
2023-01-03T05:27:12.705Z,4.87
2023-01-03T05:30:15.721Z,5.03
2023-01-03T05:33:18.692Z,7.50
2023-01-03T05:36:21.651Z,7.07
2023-01-03T05:39:25.986Z,5.90
2023-01-03T05:42:28.968Z,8.70
2023-01-03T05:45:32.015Z,8.73
2023-01-03T05:48:34.937Z,5.03
2023-01-03T05:51:37.940Z,6.90
2023-01-03T05:54:42.256Z,4.93
2023-01-03T05:57:46.885Z,4.77
2023-01-03T06:00:49.862Z,4.97
2023-01-03T06:03:53.146Z,5.37
2023-01-03T06:06:56.156Z,4.60
2023-01-03T06:10:00.472Z,4.93
2023-01-03T06:13:03.466Z,5.43
2023-01-03T06:16:25.618Z,5.13
2023-01-03T06:19:28.592Z,5.07
2023-01-03T06:22:31.561Z,5.07
2023-01-03T06:25:35.819Z,5.53
2023-01-03T06:28:38.721Z,5.13
2023-01-03T06:31:41.707Z,4.67
2023-01-03T06:34:44.673Z,6.43
2023-01-03T06:37:47.570Z,4.20
2023-01-03T06:40:51.892Z,4.73
2023-01-03T06:43:55.202Z,4.63
2023-01-03T06:47:15.457Z,4.57
2023-01-03T06:50:35.952Z,8.13
2023-01-03T06:53:41.846Z,5.93
2023-01-03T06:56:46.156Z,5.83
2023-01-03T06:59:49.111Z,9.17
2023-01-03T07:02:52.196Z,8.90
2023-01-03T07:05:55.324Z,5.83
2023-01-03T07:08:58.313Z,5.80
2023-01-03T07:12:22.614Z,6.90
2023-01-03T07:15:24.650Z,7.87
2023-01-03T07:18:27.607Z,9.60
2023-01-03T07:21:32.636Z,9.77
2023-01-03T07:24:35.578Z,8.53
2023-01-03T07:27:39.896Z,6.30
2023-01-03T07:30:44.382Z,10.27
2023-01-03T07:33:47.421Z,8.27
2023-01-03T07:36:50.406Z,11.97
2023-01-03T07:39:53.411Z,6.60
2023-01-03T07:43:15.016Z,10.03
2023-01-03T07:46:20.600Z,7.80
2023-01-03T07:49:23.646Z,8.57
2023-01-03T07:52:26.605Z,6.17
2023-01-03T07:55:29.549Z,5.80
2023-01-03T07:58:34.488Z,6.60
2023-01-03T08:01:37.453Z,5.93
2023-01-03T08:04:40.521Z,6.00
2023-01-03T08:07:43.474Z,6.40
2023-01-03T08:11:03.968Z,6.00
2023-01-03T08:14:08.333Z,6.07
2023-01-03T08:17:11.311Z,6.77
2023-01-03T08:20:15.384Z,5.70
2023-01-03T08:23:18.372Z,6.13
2023-01-03T08:26:21.301Z,6.63
2023-01-03T08:29:25.675Z,6.13
2023-01-03T08:32:29.257Z,5.60
2023-01-03T08:35:37.310Z,6.43
2023-01-03T08:38:45.626Z,6.37
2023-01-03T08:41:53.487Z,8.50
2023-01-03T08:45:03.377Z,7.17
2023-01-03T08:48:07.956Z,5.77
2023-01-03T08:51:11.446Z,6.43
2023-01-03T08:54:14.634Z,7.00
2023-01-03T08:57:17.576Z,7.63
2023-01-03T09:00:22.176Z,5.97
2023-01-03T09:03:25.275Z,7.30
2023-01-03T09:06:28.274Z,6.30
2023-01-03T09:09:32.086Z,7.50
2023-01-03T09:12:35.046Z,5.80
2023-01-03T09:15:39.347Z,6.10
2023-01-03T09:18:42.499Z,5.97
2023-01-03T09:21:45.446Z,6.23
2023-01-03T09:24:48.470Z,5.23
2023-01-03T09:27:51.484Z,5.77
2023-01-03T09:30:55.931Z,5.40
2023-01-03T09:33:58.860Z,5.80
2023-01-03T09:37:04.202Z,4.57
2023-01-03T09:40:08.621Z,5.60
2023-01-03T09:43:21.420Z,5.33
2023-01-03T09:46:30.380Z,5.93
2023-01-03T09:49:35.841Z,4.83
2023-01-03T09:53:03.487Z,4.30
2023-01-03T09:56:25.191Z,4.33
2023-01-03T09:59:50.896Z,7.00
2023-01-03T10:03:32.316Z,5.33
2023-01-03T10:06:47.342Z,4.40
2023-01-03T10:09:56.749Z,4.70
2023-01-03T10:13:09.084Z,5.97
2023-01-03T10:16:20.332Z,4.50
2023-01-03T10:19:57.000Z,6.03
2023-01-03T10:23:00.048Z,4.57
2023-01-03T10:26:09.325Z,4.93
2023-01-03T10:29:18.106Z,5.40
2023-01-03T10:32:39.259Z,5.10
2023-01-03T10:35:43.607Z,5.60
2023-01-03T10:38:52.884Z,9.07
2023-01-03T10:41:59.726Z,6.63
2023-01-03T10:45:05.925Z,5.90
2023-01-03T10:48:15.536Z,8.73
2023-01-03T10:51:29.004Z,8.47
2023-01-03T10:54:47.392Z,6.30
2023-01-03T10:58:01.651Z,8.80
2023-01-03T11:01:22.219Z,6.53
2023-01-03T11:04:25.691Z,9.00
2023-01-03T11:07:30.292Z,8.27
2023-01-03T11:10:39.294Z,6.77
2023-01-03T11:13:43.462Z,7.07
2023-01-03T11:16:46.470Z,8.10
2023-01-03T11:19:50.249Z,7.47
2023-01-03T11:23:01.530Z,8.27
2023-01-03T11:26:13.753Z,9.50
2023-01-03T11:29:48.933Z,7.47
2023-01-03T11:33:12.641Z,7.37
2023-01-03T11:36:28.036Z,7.43
2023-01-03T11:39:50.535Z,7.63
2023-01-03T11:43:05.412Z,6.70
2023-01-03T11:46:27.100Z,8.07
2023-01-03T11:49:37.034Z,7.03
2023-01-03T11:52:46.429Z,9.37
2023-01-03T11:56:08.134Z,6.70
2023-01-03T11:59:46.640Z,7.33
2023-01-03T12:03:10.340Z,12.73
2023-01-03T12:06:28.530Z,7.03
2023-01-03T12:09:39.455Z,7.07
2023-01-03T12:13:11.578Z,8.23
2023-01-03T12:16:19.922Z,8.27
2023-01-03T12:19:36.036Z,7.37
2023-01-03T12:22:42.960Z,7.83
2023-01-03T12:25:51.518Z,8.90
2023-01-03T12:29:01.294Z,7.13
2023-01-03T12:32:09.678Z,7.30
2023-01-03T12:35:31.675Z,7.83
2023-01-03T12:38:40.336Z,7.00
2023-01-03T12:41:47.479Z,9.10
2023-01-03T12:44:58.932Z,7.73
2023-01-03T12:48:09.236Z,10.50
2023-01-03T12:51:15.188Z,6.97
2023-01-03T12:54:28.225Z,6.13
2023-01-03T12:57:48.826Z,8.23
2023-01-03T13:01:00.847Z,6.37
2023-01-03T13:04:11.576Z,6.80
2023-01-03T13:07:18.425Z,6.37
2023-01-03T13:10:30.842Z,6.80
2023-01-03T13:13:35.654Z,7.10
2023-01-03T13:16:44.983Z,8.50
2023-01-03T13:19:59.180Z,8.33
2023-01-03T13:23:02.398Z,6.70
2023-01-03T13:26:22.577Z,10.53
2023-01-03T13:29:54.968Z,7.23
2023-01-03T13:33:17.244Z,6.47
2023-01-03T13:36:20.505Z,7.90
2023-01-03T13:39:40.565Z,6.30
2023-01-03T13:42:43.902Z,6.43
2023-01-03T13:45:57.498Z,6.57
2023-01-03T13:49:05.260Z,6.13
2023-01-03T13:52:56.469Z,6.20
2023-01-03T13:56:01.649Z,7.43
2023-01-03T13:59:19.524Z,6.83
2023-01-03T14:02:59.295Z,7.97
2023-01-03T14:06:24.285Z,6.53
2023-01-03T14:09:55.521Z,6.30
2023-01-03T14:13:27.219Z,6.60
2023-01-03T14:16:39.536Z,6.20
2023-01-03T14:19:50.795Z,6.37
2023-01-03T14:22:54.612Z,8.07
2023-01-03T14:26:07.590Z,6.17
2023-01-03T14:29:17.004Z,7.30
2023-01-03T14:32:25.385Z,7.40
2023-01-03T14:35:38.301Z,6.60
2023-01-03T14:38:48.024Z,6.90
2023-01-03T14:41:52.435Z,7.00
2023-01-03T14:44:57.016Z,6.90
2023-01-03T14:48:00.130Z,8.93
2023-01-03T14:51:04.661Z,14.50
2023-01-03T14:54:07.829Z,8.13
2023-01-03T14:57:20.781Z,7.00
2023-01-03T15:00:32.658Z,9.20
2023-01-03T15:03:38.737Z,7.30
2023-01-03T15:07:02.280Z,7.80
2023-01-03T15:10:18.994Z,10.73
2023-01-03T15:13:26.350Z,7.13
2023-01-03T15:16:33.388Z,8.20
2023-01-03T15:19:38.683Z,8.73
2023-01-03T15:22:42.718Z,7.80
2023-01-03T15:25:45.714Z,8.63
2023-01-03T15:28:55.070Z,7.93
2023-01-03T15:32:00.564Z,8.10
2023-01-03T15:35:03.659Z,10.70
2023-01-03T15:38:13.757Z,8.17
2023-01-03T15:41:44.138Z,9.00
2023-01-03T15:44:49.142Z,8.60
2023-01-03T15:47:57.342Z,8.70
2023-01-03T15:51:00.288Z,8.83
2023-01-03T15:54:03.241Z,8.13
2023-01-03T15:57:10.579Z,9.37
2023-01-03T16:00:21.073Z,9.63
2023-01-03T16:03:26.514Z,9.83
2023-01-03T16:06:29.633Z,11.60
2023-01-03T16:09:32.623Z,10.43
2023-01-03T16:12:38.490Z,12.70
2023-01-03T16:15:43.704Z,10.77
2023-01-03T16:18:48.978Z,9.50
2023-01-03T16:22:24.431Z,8.53
2023-01-03T16:25:17.914Z,9.57
2023-01-03T16:28:22.289Z,12.10
2023-01-03T16:31:31.889Z,10.07
2023-01-03T16:34:35.180Z,9.57
2023-01-03T16:37:38.316Z,9.20
2023-01-03T16:40:42.062Z,9.20
2023-01-03T16:43:44.961Z,8.27
2023-01-03T16:46:49.440Z,9.37
2023-01-03T16:49:56.239Z,9.50
2023-01-03T16:52:59.200Z,9.73
2023-01-03T16:56:02.842Z,9.90
2023-01-03T16:59:11.018Z,9.33
2023-01-03T17:02:16.204Z,11.83
2023-01-03T17:05:19.808Z,11.03
2023-01-03T17:08:25.894Z,11.97
2023-01-03T17:11:28.914Z,13.57
2023-01-03T17:14:35.900Z,15.47
2023-01-03T17:17:40.198Z,14.03
2023-01-03T17:20:43.156Z,13.10
2023-01-03T17:23:47.310Z,13.90
2023-01-03T17:26:51.721Z,13.63
2023-01-03T17:30:00.148Z,15.00
2023-01-03T17:33:04.557Z,13.70
2023-01-03T17:36:12.680Z,15.13
2023-01-03T17:39:15.910Z,14.80
2023-01-03T17:42:18.994Z,17.53
2023-01-03T17:45:39.937Z,14.67
2023-01-03T17:49:01.568Z,13.60
2023-01-03T17:52:07.148Z,16.73
2023-01-03T17:55:19.605Z,15.87
2023-01-03T17:58:30.410Z,15.37
2023-01-03T18:01:34.014Z,15.70
2023-01-03T18:05:13.780Z,23.47
2023-01-03T18:08:02.709Z,23.27
2023-01-03T18:11:07.344Z,25.60
2023-01-03T18:14:14.719Z,24.40
2023-01-03T18:17:29.248Z,29.90
2023-01-03T18:20:33.676Z,24.30
2023-01-03T18:23:39.402Z,23.03
2023-01-03T18:26:44.622Z,18.83
2023-01-03T18:29:47.587Z,22.63
2023-01-03T18:32:50.557Z,34.13
2023-01-03T18:35:54.956Z,33.93
2023-01-03T18:39:02.427Z,40.27
2023-01-03T18:42:19.533Z,40.47
2023-01-03T18:45:22.686Z,41.60
2023-01-03T18:48:25.696Z,45.50
2023-01-03T18:51:30.644Z,47.00
2023-01-03T18:54:37.918Z,40.80
2023-01-03T18:57:40.933Z,44.47
2023-01-03T19:00:45.733Z,42.00
2023-01-03T19:03:49.528Z,32.63
2023-01-03T19:06:53.889Z,26.57
2023-01-03T19:09:56.913Z,27.07
2023-01-03T19:13:00.289Z,27.70
2023-01-03T19:16:03.303Z,26.27
2023-01-03T19:19:07.861Z,24.07
2023-01-03T19:22:22.352Z,27.67
2023-01-03T19:25:27.561Z,22.70
2023-01-03T19:28:30.465Z,29.20
2023-01-03T19:31:40.608Z,34.33
2023-01-03T19:34:43.563Z,33.47
2023-01-03T19:37:48.251Z,34.67
2023-01-03T19:40:51.157Z,29.20
2023-01-03T19:43:54.108Z,27.43
2023-01-03T19:46:57.302Z,32.30
2023-01-03T19:50:11.437Z,32.23
2023-01-03T19:53:16.535Z,29.37
2023-01-03T19:56:24.422Z,24.27
2023-01-03T19:59:29.211Z,22.53
2023-01-03T20:02:39.621Z,26.50
2023-01-03T20:05:42.924Z,24.43
2023-01-03T20:08:48.053Z,26.07
2023-01-03T20:11:53.533Z,24.07
2023-01-03T20:15:04.472Z,28.50
2023-01-03T20:18:24.274Z,23.07
2023-01-03T20:21:31.789Z,27.33
2023-01-03T20:24:36.104Z,24.53
2023-01-03T20:27:44.562Z,27.93
2023-01-03T20:30:48.239Z,24.70
2023-01-03T20:33:52.128Z,30.93
2023-01-03T20:36:55.713Z,26.43
2023-01-03T20:40:00.125Z,25.00
2023-01-03T20:43:03.777Z,26.93
2023-01-03T20:46:06.968Z,26.30
2023-01-03T20:49:15.970Z,25.23
2023-01-03T20:52:19.484Z,25.33
2023-01-03T20:55:25.843Z,23.20
2023-01-03T20:58:28.819Z,24.53
2023-01-03T21:01:32.043Z,26.97
2023-01-03T21:04:35.065Z,25.40
2023-01-03T21:07:51.961Z,27.57
2023-01-03T21:10:56.346Z,31.00
2023-01-03T21:14:00.816Z,30.17
2023-01-03T21:17:03.780Z,24.87
2023-01-03T21:20:10.952Z,27.00
2023-01-03T21:23:18.103Z,19.60
2023-01-03T21:26:22.422Z,20.63
2023-01-03T21:29:25.587Z,25.87
2023-01-03T21:32:28.562Z,26.03
2023-01-03T21:35:31.719Z,18.53
2023-01-03T21:38:34.670Z,19.83
2023-01-03T21:41:59.328Z,20.90
2023-01-03T21:45:02.267Z,16.03
2023-01-03T21:48:06.664Z,15.43
2023-01-03T21:51:11.811Z,15.10
2023-01-03T21:54:14.742Z,14.77
2023-01-03T21:57:23.161Z,17.00
2023-01-03T22:00:26.564Z,13.80
2023-01-03T22:03:47.083Z,16.40
2023-01-03T22:06:50.031Z,13.90
2023-01-03T22:10:10.609Z,15.73
2023-01-03T22:13:14.859Z,16.90
2023-01-03T22:16:18.090Z,16.37
2023-01-03T22:19:21.084Z,14.93
2023-01-03T22:22:24.450Z,13.20
2023-01-03T22:25:27.377Z,16.27
2023-01-03T22:28:36.351Z,14.57
2023-01-03T22:31:39.359Z,14.13
2023-01-03T22:34:42.387Z,14.37
2023-01-03T22:37:45.506Z,16.07
2023-01-03T22:40:48.420Z,21.43
2023-01-03T22:43:53.669Z,16.50
2023-01-03T22:46:56.603Z,15.20
2023-01-03T22:49:59.557Z,15.00
2023-01-03T22:53:02.526Z,15.33
2023-01-03T22:56:06.374Z,13.60
2023-01-03T22:59:10.701Z,12.67
2023-01-03T23:02:13.874Z,12.43
2023-01-03T23:05:16.946Z,13.27
2023-01-03T23:08:19.997Z,13.17
2023-01-03T23:11:42.109Z,12.63
2023-01-03T23:14:46.432Z,12.37
2023-01-03T23:17:58.207Z,12.07
2023-01-03T23:21:05.753Z,14.67
2023-01-03T23:24:13.448Z,13.07
2023-01-03T23:27:16.342Z,13.63
2023-01-03T23:30:20.682Z,11.40
2023-01-03T23:33:23.717Z,12.33
2023-01-03T23:36:27.468Z,11.13
2023-01-03T23:39:30.647Z,11.97
2023-01-03T23:42:33.563Z,13.73
2023-01-03T23:45:38.384Z,12.90
2023-01-03T23:48:41.382Z,11.70
2023-01-03T23:51:44.409Z,11.20
2023-01-03T23:54:47.329Z,11.93
2023-01-03T23:57:50.260Z,12.03
